MGGT/GUA METAR and TAF weather

Enter ICAO airport designator
Station Type Date Time Source
MGGT METAR 2020/07/05 16:00 UTC NOAA

MGGT 051600Z 36008KT 9999 BKN015 SCT090 21/17 Q1026 A3030


Station Type Date Time Source
MGGT Decoded METAR 2020/07/05 16:00 UTC NOAA

Guatemala Aeropuertola Aurora , Guatemala (MGGT) 14-35N 090-31W 1489M
Jul 05, 2020 - 12:00 PM EDT / 2020.07.05 1600 UTC
Wind: from the N (360 degrees) at 9 MPH (8 KT):0
Visibility: greater than 7 mile(s):0
Sky conditions: mostly cloudy
Temperature: 69 F (21 C)
Dew Point: 62 F (17 C)
Relative Humidity: 77%
Pressure (altimeter): 30.3 in. Hg (1026 hPa)
ob: MGGT 051600Z 36008KT 9999 BKN015 SCT090 21/17 Q1026 A3030
cycle: 16

Station Type Date Time Source
MGGT TAF 2020/07/05 18:54 UTC NOAA

TAF TAF MGGT 051700Z 0518/0618 18008KT 9999 SCT018 BKN090 TX26/0520Z TN17/0612Z PROB30 0518/0614 8000 RADZ BKN012
TEMPO 0518/0604 18008KT 8000 TSRA SCT020TCU FEW025CB
BECMG 0600/0602 VRB03KT SCT016
BECMG 0614/0616 11008KT SCT018

Example: see airport list